Time;durP1;ratioP1;P1;durP2;ratioP2;P2;SDS_P1;SDS_P2;PMS_P1;PMS_P2;Temp;Humidity;BMP_temperature;BMP_pressure;BME280_temperature;BME280_humidity;BME280_pressure;Samples;Min_cycle;Max_cycle;Signal;HPM_P1;HPM_P2
2022/12/22 10:55:34;;;;;;;8.57;1.75;;;;;;;11.49;73.31;99088.13;1082496;54;20038;-77
2022/12/22 10:56:39;;;;;;;7.00;1.85;;;;;;;11.48;73.45;99089.13;1083494;54;20035;-77
2022/12/22 10:57:41;;;;;;;8.30;1.77;;;;;;;11.54;73.49;99076.91;1083246;54;20236;-74
2022/12/22 10:58:53;;;;;;;5.38;1.60;;;;;;;11.55;73.30;99086.59;1083245;54;20061;-76
2022/12/22 10:59:56;;;;;;;5.80;1.30;;;;;;;11.66;73.10;99077.38;1084693;54;20062;-77
2022/12/22 11:01:06;;;;;;;7.60;1.63;;;;;;;11.61;72.46;99091.28;1083942;54;20034;-77
2022/12/22 11:03:54;;;;;;;8.65;1.80;;;;;;;11.58;72.84;99102.31;1082917;54;19957;-78
2022/12/22 11:06:14;;;;;;;3.70;1.10;;;;;;;11.65;73.85;99108.66;1083544;54;20831;-75
2022/12/22 11:07:19;;;;;;;5.70;1.40;;;;;;;11.57;75.06;99087.28;1084192;39;20436;-75
2022/12/22 11:08:23;;;;;;;6.40;1.63;;;;;;;11.43;76.87;99096.03;1083003;54;20141;-75
2022/12/22 11:09:25;;;;;;;7.65;1.75;;;;;;;11.32;78.32;99095.41;1082810;54;20038;-76
2022/12/22 11:10:38;;;;;;;5.63;1.27;;;;;;;11.22;79.33;99102.81;1082856;54;20057;-75
2022/12/22 11:11:50;;;;;;;7.60;1.45;;;;;;;11.18;79.80;99102.31;1085973;39;20860;-77
2022/12/22 11:13:22;;;;;;;5.30;1.13;;;;;;;11.11;80.95;99100.50;1085848;39;20480;-76
2022/12/22 11:14:37;;;;;;;6.03;1.40;;;;;;;11.08;81.07;99110.53;1084004;54;20880;-76
2022/12/22 11:15:49;;;;;;;4.40;1.50;;;;;;;10.99;81.89;99116.88;1084932;54;20039;-76
2022/12/22 11:17:00;;;;;;;8.57;2.00;;;;;;;10.91;82.22;99108.88;1083787;46;20072;-77
2022/12/22 11:18:12;;;;;;;10.23;2.67;;;;;;;10.90;82.74;99104.53;1084043;54;20054;-76
2022/12/22 11:19:39;;;;;;;6.07;1.65;;;;;;;10.91;81.72;99092.84;1083863;54;20122;-76
2022/12/22 11:20:51;;;;;;;4.95;1.58;;;;;;;11.01;79.86;99106.88;1084010;54;20050;-77
2022/12/22 11:22:02;;;;;;;6.60;1.50;;;;;;;11.03;79.68;99098.66;1084182;54;20046;-77
2022/12/22 11:23:16;;;;;;;8.20;1.67;;;;;;;10.98;79.84;99101.84;1084412;54;20150;-77
2022/12/22 11:24:35;;;;;;;8.93;1.63;;;;;;;11.01;79.86;99101.50;1084643;54;20107;-76
2022/12/22 11:25:57;;;;;;;5.05;1.48;;;;;;;11.04;79.50;99106.53;1082511;54;20129;-76
2022/12/22 11:27:18;;;;;;;10.18;2.55;;;;;;;11.09;79.02;99098.00;1084283;54;20019;-76
2022/12/22 11:28:39;;;;;;;7.53;1.83;;;;;;;11.11;78.91;99100.50;1082979;54;20676;-74
2022/12/22 11:30:07;;;;;;;8.25;1.75;;;;;;;11.14;79.35;99102.84;1087585;39;20453;-77
2022/12/22 11:31:16;;;;;;;9.40;2.00;;;;;;;11.15;78.61;99099.13;1083957;54;20096;-77
2022/12/22 11:32:40;;;;;;;9.95;1.92;;;;;;;11.10;78.79;99109.50;1084962;39;20991;-78
2022/12/22 11:33:56;;;;;;;6.65;1.55;;;;;;;11.13;78.13;99091.28;1085910;31;20682;-77
2022/12/22 11:35:05;;;;;;;7.95;2.10;;;;;;;11.16;78.04;99107.00;1085861;54;20043;-76
2022/12/22 11:36:17;;;;;;;9.98;1.90;;;;;;;11.22;77.56;99102.81;1085847;39;20811;-76
2022/12/22 11:37:33;;;;;;;6.13;1.60;;;;;;;11.31;77.67;99093.75;1084850;54;20038;-74
2022/12/22 11:38:46;;;;;;;5.65;1.60;;;;;;;11.31;77.25;99085.72;1083874;54;20034;-75
2022/12/22 11:39:55;;;;;;;7.82;1.73;;;;;;;11.27;77.02;99105.78;1084507;54;20045;-76
2022/12/22 11:41:11;;;;;;;10.15;1.65;;;;;;;11.36;76.43;99088.69;1084442;54;20038;-76
2022/12/22 11:42:33;;;;;;;5.93;1.35;;;;;;;11.32;76.50;99084.72;1084466;54;20054;-77
2022/12/22 11:43:55;;;;;;;9.73;1.63;;;;;;;11.33;76.61;99088.22;1083473;54;20044;-78
2022/12/22 11:45:13;;;;;;;7.82;1.40;;;;;;;11.32;76.53;99097.25;1084601;54;20073;-77
2022/12/22 11:46:22;;;;;;;6.03;1.85;;;;;;;11.45;76.02;99097.53;1084824;54;20065;-76
2022/12/22 11:47:38;;;;;;;5.47;1.60;;;;;;;11.47;75.73;99086.66;1086046;39;20464;-77
2022/12/22 11:48:59;;;;;;;8.55;1.90;;;;;;;11.43;76.14;99088.03;1086766;39;20803;-77
2022/12/22 11:50:23;;;;;;;6.65;1.60;;;;;;;11.43;75.92;99088.84;1087384;54;20069;-76
2022/12/22 11:51:42;;;;;;;8.65;1.77;;;;;;;11.46;75.34;99071.59;1087923;54;20019;-76
2022/12/22 11:53:03;;;;;;;6.32;1.95;;;;;;;11.43;75.29;99091.50;1088441;47;20057;-75
2022/12/22 11:54:34;;;;;;;7.00;1.95;;;;;;;11.48;75.19;99089.13;1090264;39;20253;-77
2022/12/22 11:55:42;;;;;;;7.60;1.80;;;;;;;11.55;74.69;99100.00;1087802;47;20038;-76
2022/12/22 11:56:58;;;;;;;8.38;1.73;;;;;;;11.57;74.57;99099.84;1087449;54;20053;-76
2022/12/22 11:58:22;;;;;;;7.47;1.88;;;;;;;11.55;74.03;99084.78;1086207;54;20034;-77
2022/12/22 11:59:43;;;;;;;7.80;1.85;;;;;;;11.59;74.09;99101.31;1087127;54;20061;-76
2022/12/22 12:00:50;;;;;;;;;;;;;;;11.56;73.99;99090.94;1084654;54;20054;-75
2022/12/22 12:02:20;;;;;;;5.80;1.98;;;;;;;11.64;73.56;99096.25;1084219;54;19953;-76
2022/12/22 12:03:57;;;;;;;5.22;1.27;;;;;;;11.68;73.22;99102.94;1085107;47;20061;-78
2022/12/22 12:05:18;;;;;;;7.88;1.45;;;;;;;11.71;73.38;99101.75;1084519;54;20042;-77
2022/12/22 12:06:32;;;;;;;6.85;1.70;;;;;;;11.71;73.30;99105.25;1084028;54;20137;-77
2022/12/22 12:07:42;;;;;;;4.82;1.40;;;;;;;11.71;72.93;99083.00;1083642;54;20045;-76
2022/12/22 12:09:01;;;;;;;7.32;1.55;;;;;;;11.70;73.06;99116.16;1084022;47;20102;-77
2022/12/22 12:10:15;;;;;;;5.72;1.30;;;;;;;11.70;73.20;99113.47;1083936;54;20048;-78
2022/12/22 12:11:30;;;;;;;5.90;2.05;;;;;;;11.76;72.98;99117.28;1083409;47;20050;-75
2022/12/22 12:12:43;;;;;;;5.95;1.75;;;;;;;11.84;73.20;99117.25;1083531;54;20038;-77
2022/12/22 12:13:53;;;;;;;6.68;1.45;;;;;;;11.80;72.87;99115.94;1082959;54;20045;-75
2022/12/22 12:15:09;;;;;;;3.92;1.25;;;;;;;11.79;73.02;99111.59;1083431;54;20039;-76
2022/12/22 12:16:21;;;;;;;5.85;1.50;;;;;;;11.78;72.63;99124.13;1083710;54;20137;-75
2022/12/22 12:17:34;;;;;;;5.35;1.30;;;;;;;11.80;72.91;99119.44;1083965;47;20050;-76
2022/12/22 12:18:53;;;;;;;4.72;1.15;;;;;;;11.83;72.77;99123.63;1084573;54;20681;-77
2022/12/22 12:20:22;;;;;;;4.03;0.90;;;;;;;11.84;72.56;99125.28;1083944;54;20102;-76
2022/12/22 12:21:30;;;;;;;6.05;1.20;;;;;;;11.86;72.29;99125.94;1083944;54;20075;-78
2022/12/22 12:22:46;;;;;;;7.18;1.45;;;;;;;11.95;72.51;99129.44;1084989;47;20661;-78
2022/12/22 12:24:11;;;;;;;5.55;1.45;;;;;;;11.97;72.25;99130.94;1084018;54;20062;-76
2022/12/22 12:25:27;;;;;;;4.78;1.50;;;;;;;11.95;72.05;99124.88;1083287;54;20182;-77
2022/12/22 12:26:34;;;;;;;5.07;1.20;;;;;;;11.93;72.17;99153.69;1085898;39;20563;-76
2022/12/22 12:27:59;;;;;;;4.53;1.00;;;;;;;11.81;72.67;99144.38;1084143;54;20740;-76
2022/12/22 12:29:15;;;;;;;4.18;1.15;;;;;;;11.84;72.98;99136.00;1084365;54;20145;-76
2022/12/22 12:30:18;;;;;;;4.60;1.30;;;;;;;11.95;72.82;99149.00;1084055;54;20046;-77
2022/12/22 12:31:29;;;;;;;4.57;1.40;;;;;;;11.83;73.04;99143.22;1085442;54;20923;-77
2022/12/22 12:32:37;;;;;;;4.68;1.30;;;;;;;11.75;73.01;99145.94;1085142;54;20098;-77
2022/12/22 12:33:48;;;;;;;5.50;1.30;;;;;;;11.73;73.34;99152.44;1083303;54;20043;-77
2022/12/22 12:35:02;;;;;;;3.92;1.08;;;;;;;11.76;73.46;99149.44;1083338;54;20101;-78
2022/12/22 12:36:15;;;;;;;4.65;1.20;;;;;;;11.70;73.56;99149.13;1085655;54;20090;-77
2022/12/22 12:37:21;;;;;;;7.13;1.70;;;;;;;11.71;73.60;99150.78;1085763;54;20054;-77
2022/12/22 12:38:34;;;;;;;5.22;1.38;;;;;;;11.69;73.20;99152.81;1085073;54;20030;-76
2022/12/22 12:39:43;;;;;;;5.45;1.38;;;;;;;11.77;73.28;99159.13;1085413;54;20038;-76
2022/12/22 12:40:50;;;;;;;5.00;1.35;;;;;;;11.67;73.72;99149.47;1084937;54;20135;-77
2022/12/22 12:42:03;;;;;;;6.43;1.63;;;;;;;11.67;73.78;99159.31;1083886;54;20034;-77
2022/12/22 12:43:12;;;;;;;6.68;1.55;;;;;;;11.71;73.35;99164.16;1085336;47;20130;-76
2022/12/22 12:44:19;;;;;;;7.25;1.52;;;;;;;11.77;73.55;99159.13;1085360;54;20038;-76
2022/12/22 12:45:38;;;;;;;4.55;1.60;;;;;;;11.82;73.30;99165.63;1086952;54;20045;-79
2022/12/22 12:46:59;;;;;;;4.60;1.33;;;;;;;11.96;72.81;99172.09;1085895;39;20559;-75
2022/12/22 12:48:38;;;;;;;6.97;1.45;;;;;;;11.77;73.54;99164.47;1084339;54;20055;-77
2022/12/22 12:50:03;;;;;;;4.93;1.20;;;;;;;11.79;73.46;99167.84;1085923;54;20114;-78
2022/12/22 12:51:37;;;;;;;7.32;1.63;;;;;;;11.71;74.14;99182.06;1085700;54;20049;-78
2022/12/22 12:53:14;;;;;;;5.75;1.20;;;;;;;11.71;73.62;99174.03;1086717;54;21155;-77
2022/12/22 12:54:39;;;;;;;4.75;1.20;;;;;;;11.79;74.00;99181.22;1085492;54;20065;-78
2022/12/22 12:56:08;;;;;;;6.70;1.40;;;;;;;11.74;74.38;99192.44;1086248;54;20042;-77
2022/12/22 12:57:21;;;;;;;3.95;1.60;;;;;;;11.88;74.15;99184.69;1084598;46;20588;-77
2022/12/22 12:58:53;;;;;;;5.50;1.15;;;;;;;11.82;74.13;99192.41;1085092;54;20081;-78
2022/12/22 12:59:58;;;;;;;4.80;1.33;;;;;;;11.76;74.45;99189.59;1085265;54;20046;-77
2022/12/22 13:01:01;;;;;;;4.90;1.38;;;;;;;11.77;74.94;99191.25;1084541;46;20054;-77
2022/12/22 13:02:05;;;;;;;4.53;1.38;;;;;;;11.65;75.45;99191.63;1085051;54;20045;-74
2022/12/22 13:03:09;;;;;;;5.15;1.50;;;;;;;11.75;74.98;99198.63;1085084;54;20065;-77
2022/12/22 13:04:34;;;;;;;4.82;1.20;;;;;;;11.88;75.00;99190.88;1085355;54;20832;-78
2022/12/22 13:05:52;;;;;;;4.82;1.38;;;;;;;11.81;75.09;99179.19;1085073;46;20038;-80
2022/12/22 13:06:53;;;;;;;5.00;1.10;;;;;;;11.78;75.15;99196.44;1086568;54;20042;-79
2022/12/22 13:08:17;;;;;;;4.38;1.10;;;;;;;11.78;75.40;99198.28;1085957;54;20600;-77
2022/12/22 13:09:23;;;;;;;5.88;1.40;;;;;;;11.86;75.29;99190.22;1087048;54;20031;-75
2022/12/22 13:10:25;;;;;;;3.83;1.20;;;;;;;11.96;75.19;99201.56;1085539;54;20069;-76
2022/12/22 13:11:36;;;;;;;4.93;1.23;;;;;;;11.75;76.12;99203.97;1085935;46;20034;-77
2022/12/22 13:12:39;;;;;;;5.55;1.23;;;;;;;11.74;76.24;99208.50;1087669;54;20034;-76
2022/12/22 13:13:55;;;;;;;5.70;1.83;;;;;;;11.82;75.91;99218.34;1087343;54;20014;-79
2022/12/22 13:14:57;;;;;;;6.93;1.70;;;;;;;11.80;75.97;99212.34;1086361;54;20054;-79
2022/12/22 13:16:24;;;;;;;4.90;1.10;;;;;;;11.66;76.61;99209.38;1087013;46;20034;-80
2022/12/22 13:17:35;;;;;;;6.10;1.60;;;;;;;11.63;77.08;99212.38;1087875;54;20026;-77
2022/12/22 13:18:42;;;;;;;5.55;1.35;;;;;;;11.70;76.67;99213.38;1087284;54;20045;-77
2022/12/22 13:19:49;;;;;;;6.63;1.50;;;;;;;11.63;77.15;99217.72;1085963;54;20094;-78
2022/12/22 13:20:54;;;;;;;5.88;1.65;;;;;;;11.71;77.02;99220.38;1084004;54;20683;-77
2022/12/22 13:22:03;;;;;;;4.15;1.00;;;;;;;11.76;77.07;99216.38;1084475;54;20041;-77
2022/12/22 13:23:11;;;;;;;5.95;1.63;;;;;;;11.81;77.02;99224.69;1084585;54;20046;-79
2022/12/22 13:24:23;;;;;;;4.22;1.20;;;;;;;11.89;76.53;99227.38;1084127;54;20129;-78
2022/12/22 13:25:41;;;;;;;3.22;1.00;;;;;;;11.73;76.98;99224.72;1084289;54;20137;-78
2022/12/22 13:26:46;;;;;;;5.10;1.27;;;;;;;11.62;77.55;99226.78;1086022;54;20069;-79
2022/12/22 13:27:51;;;;;;;6.22;1.58;;;;;;;11.81;76.90;99222.88;1087241;54;20076;-77
2022/12/22 13:29:00;;;;;;;3.78;1.05;;;;;;;11.70;77.21;99224.09;1087390;46;20050;-79
2022/12/22 13:30:04;;;;;;;4.90;1.20;;;;;;;11.53;77.79;99220.63;1087231;54;20037;-77
2022/12/22 13:31:16;;;;;;;5.57;1.23;;;;;;;11.55;77.77;99225.78;1086846;54;20061;-79
2022/12/22 13:32:25;;;;;;;4.47;1.27;;;;;;;11.75;77.19;99226.25;1090128;39;20504;-77
2022/12/22 13:33:37;;;;;;;5.32;1.30;;;;;;;11.79;77.10;99227.56;1086785;54;20069;-78
2022/12/22 13:34:43;;;;;;;4.95;1.67;;;;;;;11.71;77.24;99236.44;1085041;54;20042;-77
2022/12/22 13:35:50;;;;;;;4.53;1.20;;;;;;;11.67;77.03;99243.16;1085035;54;20054;-77
2022/12/22 13:36:54;;;;;;;4.10;1.17;;;;;;;11.92;76.51;99236.91;1086964;54;20042;-78
2022/12/22 13:44:28;;;;;;;4.13;1.40;;;;;;;11.76;76.13;99246.63;1086556;54;20042;-76
2022/12/22 13:46:00;;;;;;;3.85;1.25;;;;;;;11.61;76.49;99246.53;1086518;54;20061;-76
2022/12/22 13:47:13;;;;;;;4.05;1.17;;;;;;;11.74;76.52;99243.31;1086299;54;20127;-76
2022/12/22 13:48:42;;;;;;;4.30;1.08;;;;;;;11.71;76.71;99257.03;1086284;54;20034;-77
2022/12/22 13:50:04;;;;;;;4.88;1.52;;;;;;;11.67;76.73;99248.53;1086616;54;20042;-77
2022/12/22 13:54:22;;;;;;;4.72;0.80;;;;;;;11.61;77.65;99257.25;1083202;54;20065;-75
2022/12/22 13:59:26;;;;;;;5.35;1.38;;;;;;;11.33;79.23;99267.47;1085239;54;20118;-75
2022/12/22 14:01:56;;;;;;;4.53;0.98;;;;;;;11.37;79.62;99250.91;1085689;54;20061;-78
2022/12/22 14:03:01;;;;;;;6.30;1.50;;;;;;;11.28;80.29;99267.16;1086009;54;20038;-77
2022/12/22 14:04:06;;;;;;;5.07;1.23;;;;;;;11.38;79.90;99274.00;1085110;54;20073;-77
2022/12/22 14:05:10;;;;;;;5.45;1.50;;;;;;;11.37;79.86;99266.16;1085119;54;20038;-77
2022/12/22 14:06:30;;;;;;;4.95;1.40;;;;;;;11.33;80.05;99271.00;1085987;54;20034;-76
2022/12/22 14:07:31;;;;;;;6.10;1.67;;;;;;;11.32;80.00;99269.34;1085793;54;20050;-76
2022/12/22 14:08:35;;;;;;;7.05;1.30;;;;;;;11.28;79.80;99278.69;1086016;46;20073;-78
2022/12/22 14:09:44;;;;;;;4.50;1.40;;;;;;;11.34;79.91;99278.00;1086813;54;20046;-78
2022/12/22 14:10:48;;;;;;;6.25;1.52;;;;;;;11.37;79.75;99280.34;1086333;54;20111;-79
2022/12/22 14:11:58;;;;;;;6.60;2.00;;;;;;;11.48;79.26;99289.03;1086741;54;20046;-78
2022/12/22 14:13:06;;;;;;;9.68;1.80;;;;;;;11.48;78.77;99278.34;1084663;54;20675;-77
2022/12/22 14:14:19;;;;;;;8.60;2.20;;;;;;;11.44;78.79;99280.53;1084009;54;20041;-78
2022/12/22 14:15:21;;;;;;;7.60;2.15;;;;;;;11.53;78.77;99273.28;1085254;54;20038;-80
2022/12/22 14:16:25;;;;;;;7.45;1.88;;;;;;;11.54;78.79;99280.31;1085824;54;20035;-79
2022/12/22 14:17:29;;;;;;;4.82;1.65;;;;;;;11.63;78.05;99283.84;1085468;54;20073;-77
2022/12/22 14:18:35;;;;;;;6.45;1.52;;;;;;;11.47;78.51;99271.31;1086166;54;20030;-76
2022/12/22 14:19:37;;;;;;;8.02;2.10;;;;;;;11.47;78.26;99282.03;1086927;54;20042;-76
2022/12/22 14:20:41;;;;;;;4.80;1.45;;;;;;;11.41;78.75;99282.69;1086536;54;20090;-78
2022/12/22 14:21:46;;;;;;;8.23;1.85;;;;;;;11.41;79.55;99288.88;1083886;54;20061;-77
2022/12/22 14:22:56;;;;;;;9.07;1.92;;;;;;;11.43;79.83;99286.06;1084316;54;20060;-78
2022/12/22 14:24:15;;;;;;;9.63;1.85;;;;;;;11.20;81.39;99287.53;1084571;54;20106;-76
2022/12/22 14:25:22;;;;;;;9.93;2.25;;;;;;;11.25;81.54;99300.41;1084460;54;20043;-77
2022/12/22 14:26:32;;;;;;;10.68;2.47;;;;;;;11.31;81.10;99291.75;1085767;54;21139;-77
2022/12/22 14:27:37;;;;;;;9.07;2.15;;;;;;;11.32;81.26;99293.41;1084670;54;20039;-78
2022/12/22 14:28:49;;;;;;;7.97;2.05;;;;;;;11.40;81.27;99303.25;1083905;54;20157;-77
2022/12/22 14:29:54;;;;;;;6.93;1.85;;;;;;;11.50;80.85;99301.25;1087427;54;20026;-76
2022/12/22 14:31:00;;;;;;;8.23;2.28;;;;;;;11.54;80.30;99299.06;1088004;46;20041;-77
2022/12/22 14:32:02;;;;;;;8.23;2.20;;;;;;;11.50;80.20;99300.44;1090900;31;20194;-78
2022/12/22 14:33:18;;;;;;;7.57;2.00;;;;;;;11.44;80.38;99309.09;1087433;54;20030;-79
2022/12/22 14:34:28;;;;;;;10.18;2.53;;;;;;;11.30;81.08;99310.63;1087267;54;20035;-78
2022/12/22 14:35:33;;;;;;;9.38;2.03;;;;;;;11.33;81.00;99319.19;1087075;54;20060;-77
2022/12/22 14:36:36;;;;;;;9.30;2.47;;;;;;;11.28;80.98;99305.44;1086508;54;20043;-77
2022/12/22 14:37:41;;;;;;;6.82;2.80;;;;;;;11.27;80.70;99314.47;1084331;54;20038;-76
2022/12/22 14:38:48;;;;;;;9.85;3.05;;;;;;;11.24;80.72;99314.81;1084329;54;20038;-77
2022/12/22 14:39:57;;;;;;;9.82;2.28;;;;;;;11.36;80.49;99308.13;1084214;54;20042;-76
2022/12/22 14:40:58;;;;;;;9.63;2.95;;;;;;;11.36;80.45;99308.13;1085223;54;20038;-78
2022/12/22 14:42:05;;;;;;;10.70;3.20;;;;;;;11.30;80.39;99305.28;1085782;54;20560;-77
2022/12/22 14:43:25;;;;;;;17.23;4.13;;;;;;;11.29;80.44;99309.78;1085798;54;20060;-78
2022/12/22 14:44:31;;;;;;;10.07;3.78;;;;;;;11.30;80.13;99303.44;1084889;54;20077;-77
2022/12/22 14:45:38;;;;;;;12.93;3.65;;;;;;;11.37;80.16;99299.09;1084475;54;20046;-79
2022/12/22 14:46:40;;;;;;;10.50;2.60;;;;;;;11.38;80.00;99311.47;1083909;54;20061;-76
2022/12/22 14:47:44;;;;;;;10.68;3.15;;;;;;;11.41;79.70;99304.13;1083778;54;20073;-76
2022/12/22 14:48:46;;;;;;;11.93;3.47;;;;;;;11.35;79.61;99314.47;1083800;54;20073;-76
2022/12/22 14:49:53;;;;;;;10.30;2.85;;;;;;;11.38;79.46;99300.75;1084023;54;20050;-76
2022/12/22 14:50:58;;;;;;;13.52;3.28;;;;;;;11.41;79.42;99314.81;1084205;54;20053;-77
2022/12/22 14:52:09;;;;;;;10.35;3.33;;;;;;;11.40;79.15;99313.97;1084222;54;20042;-76
2022/12/22 14:53:16;;;;;;;14.40;3.63;;;;;;;11.28;79.44;99309.97;1084103;54;20634;-77
2022/12/22 14:54:23;;;;;;;12.27;3.30;;;;;;;11.35;79.53;99316.31;1084814;31;20521;-77
2022/12/22 14:55:31;;;;;;;15.90;3.60;;;;;;;11.20;79.83;99324.19;1084430;54;20042;-77
2022/12/22 14:56:32;;;;;;;15.20;3.42;;;;;;;11.20;80.48;99335.69;1084699;46;20910;-77
2022/12/22 14:57:39;;;;;;;13.57;3.50;;;;;;;11.26;80.20;99325.34;1084107;54;20243;-76
2022/12/22 14:58:42;;;;;;;13.77;3.30;;;;;;;11.23;80.63;99323.84;1084006;54;20068;-76
2022/12/22 15:00:01;;;;;;;14.00;3.47;;;;;;;11.15;81.58;99332.69;1083559;54;20038;-77
2022/12/22 15:01:23;;;;;;;14.13;4.03;;;;;;;11.00;82.20;99332.50;1083268;54;20126;-80
2022/12/22 15:02:28;;;;;;;15.70;3.22;;;;;;;11.15;81.92;99335.38;1084080;54;20038;-77
2022/12/22 15:03:34;;;;;;;14.20;4.10;;;;;;;10.98;82.68;99331.84;1083744;54;20054;-76
2022/12/22 15:04:39;;;;;;;13.82;3.30;;;;;;;10.91;83.15;99337.00;1084108;54;20133;-77
2022/12/22 15:05:43;;;;;;;10.55;3.15;;;;;;;10.84;83.46;99329.81;1083446;54;20050;-79
2022/12/22 15:06:48;;;;;;;11.35;2.90;;;;;;;11.02;82.88;99333.19;1083869;54;20034;-77
2022/12/22 15:07:51;;;;;;;12.40;3.60;;;;;;;10.99;82.85;99343.38;1083890;54;20541;-77
2022/12/22 15:09:10;;;;;;;10.85;3.58;;;;;;;10.96;83.27;99339.19;1083836;54;20061;-77
2022/12/22 15:10:14;;;;;;;12.80;3.50;;;;;;;10.85;83.93;99335.00;1083291;54;20044;-77
2022/12/22 15:11:18;;;;;;;13.20;3.40;;;;;;;10.84;83.88;99336.00;1083155;46;20035;-76
2022/12/22 15:12:22;;;;;;;11.05;3.20;;;;;;;10.90;83.46;99335.34;1083617;54;20038;-76
2022/12/22 15:13:27;;;;;;;16.20;3.83;;;;;;;11.03;82.95;99339.38;1083582;54;20046;-78
2022/12/22 15:14:31;;;;;;;14.45;3.45;;;;;;;10.90;83.81;99334.50;1083091;54;20050;-79
2022/12/22 15:15:36;;;;;;;11.48;3.63;;;;;;;10.85;83.86;99328.81;1083551;54;20050;-77
2022/12/22 15:16:40;;;;;;;13.05;4.80;;;;;;;10.91;83.78;99326.31;1083597;54;20050;-79
2022/12/22 15:17:46;;;;;;;13.32;3.55;;;;;;;10.86;83.62;99335.84;1083801;54;20045;-78
2022/12/22 15:18:51;;;;;;;11.65;3.05;;;;;;;10.82;83.84;99337.97;1083811;46;20094;-77
2022/12/22 15:19:56;;;;;;;9.93;3.15;;;;;;;10.87;83.60;99330.31;1083930;46;20094;-76
2022/12/22 15:21:00;;;;;;;10.18;2.80;;;;;;;10.88;83.72;99336.50;1084426;54;20038;-75
2022/12/22 15:22:06;;;;;;;14.77;3.40;;;;;;;10.85;83.66;99340.34;1086564;54;20034;-76
2022/12/22 15:23:15;;;;;;;14.73;3.55;;;;;;;10.88;83.49;99326.66;1087768;54;20026;-77
2022/12/22 15:24:17;;;;;;;14.05;3.35;;;;;;;10.89;83.39;99331.00;1089482;46;20040;-77
2022/12/22 15:25:24;;;;;;;9.88;2.88;;;;;;;10.84;83.21;99335.16;1087493;54;20060;-77
2022/12/22 15:26:28;;;;;;;11.90;3.10;;;;;;;11.06;82.71;99337.19;1088085;46;20046;-76
2022/12/22 15:27:32;;;;;;;12.23;3.08;;;;;;;10.98;82.29;99326.50;1087661;47;20119;-77
2022/12/22 15:28:36;;;;;;;14.20;3.00;;;;;;;10.90;82.67;99334.50;1086369;54;20046;-79
2022/12/22 15:29:37;;;;;;;10.18;3.53;;;;;;;10.88;82.80;99332.00;1084190;54;20100;-78
2022/12/22 15:30:42;;;;;;;11.88;3.40;;;;;;;11.10;81.77;99329.66;1084070;54;20038;-78
2022/12/22 15:31:46;;;;;;;14.00;3.20;;;;;;;10.92;81.99;99336.00;1084248;39;20465;-77
2022/12/22 15:32:51;;;;;;;13.73;3.33;;;;;;;10.89;82.17;99338.16;1083736;54;20042;-77
2022/12/22 15:34:02;;;;;;;13.82;3.42;;;;;;;10.92;82.08;99332.50;1084036;54;20093;-77
2022/12/22 15:35:16;;;;;;;11.55;2.72;;;;;;;11.02;81.43;99338.53;1084330;39;20163;-78
2022/12/22 15:36:20;;;;;;;15.18;3.80;;;;;;;11.01;81.57;99336.88;1084026;31;20544;-77
2022/12/22 15:37:22;;;;;;;12.40;3.75;;;;;;;10.92;81.16;99329.84;1083587;54;20034;-80
2022/12/22 15:38:27;;;;;;;16.50;3.67;;;;;;;10.89;81.47;99338.16;1083667;54;20142;-79
2022/12/22 15:39:28;;;;;;;12.93;3.65;;;;;;;10.92;81.67;99335.19;1083642;54;20089;-77
2022/12/22 15:40:32;;;;;;;11.38;3.08;;;;;;;11.00;81.43;99324.50;1083858;46;20034;-76
2022/12/22 15:41:34;;;;;;;14.65;3.58;;;;;;;10.85;81.64;99328.81;1086288;54;20054;-79
2022/12/22 15:42:38;;;;;;;15.07;4.05;;;;;;;10.89;81.33;99327.47;1085737;54;20031;-79
2022/12/22 15:43:42;;;;;;;14.73;3.92;;;;;;;10.88;81.58;99325.81;1085248;54;20049;-80
2022/12/22 15:44:44;;;;;;;13.50;3.88;;;;;;;10.87;81.44;99341.03;1085716;54;20050;-79
2022/12/22 15:45:48;;;;;;;13.50;3.90;;;;;;;10.81;81.38;99335.47;1090600;31;20549;-78
2022/12/22 15:46:57;;;;;;;15.35;3.97;;;;;;;10.82;81.26;99332.63;1083852;54;20050;-78
2022/12/22 15:48:01;;;;;;;14.30;3.97;;;;;;;10.90;nan;99339.84;1083690;54;20899;-80
2022/12/22 15:49:03;;;;;;;17.08;4.13;;;;;;;10.96;81.19;99328.47;1083642;54;20077;-78
2022/12/22 15:50:09;;;;;;;11.00;2.97;;;;;;;10.95;80.90;99336.69;1083968;54;20114;-79
2022/12/22 15:51:19;;;;;;;11.93;3.63;;;;;;;10.86;81.18;99328.66;1083860;54;20572;-78
2022/12/22 15:52:23;;;;;;;15.85;3.58;;;;;;;10.83;81.61;99333.50;1083923;46;20065;-77
2022/12/22 15:53:27;;;;;;;14.13;3.55;;;;;;;10.91;81.31;99330.81;1084172;54;20086;-79
